createdAt,value
2023-02-22T00:00:44.930Z,0.00
2023-02-22T00:01:44.980Z,0.00
2023-02-22T00:02:44.928Z,0.00
2023-02-22T00:03:44.912Z,0.00
2023-02-22T00:04:44.913Z,0.00
2023-02-22T00:05:44.881Z,0.00
2023-02-22T00:06:44.847Z,0.00
2023-02-22T00:07:44.853Z,0.00
2023-02-22T00:08:44.819Z,0.00
2023-02-22T00:09:44.848Z,0.00
2023-02-22T00:10:44.817Z,0.00
2023-02-22T00:11:44.822Z,0.00
2023-02-22T00:12:44.757Z,0.00
2023-02-22T00:13:44.778Z,0.00
2023-02-22T00:14:44.778Z,0.00
2023-02-22T00:15:44.762Z,0.00
2023-02-22T00:16:44.835Z,0.00
2023-02-22T00:17:44.714Z,0.00
2023-02-22T00:18:44.676Z,0.00
2023-02-22T00:19:44.716Z,0.00
2023-02-22T00:20:44.672Z,0.00
2023-02-22T00:21:44.666Z,0.00
2023-02-22T00:22:44.644Z,0.00
2023-02-22T00:23:44.684Z,0.00
2023-02-22T00:24:44.623Z,0.00
2023-02-22T00:25:44.624Z,0.00
2023-02-22T00:26:44.592Z,0.00
2023-02-22T00:27:44.588Z,0.00
2023-02-22T00:28:44.546Z,0.00
2023-02-22T00:29:44.563Z,0.00
2023-02-22T00:30:44.547Z,0.00
2023-02-22T00:31:44.583Z,0.00
2023-02-22T00:32:44.529Z,0.00
2023-02-22T00:33:44.501Z,0.00
2023-02-22T00:34:44.504Z,0.00
2023-02-22T00:35:44.473Z,0.00
2023-02-22T00:36:44.437Z,0.00
2023-02-22T00:37:44.468Z,0.00
2023-02-22T00:38:44.429Z,0.00
2023-02-22T00:39:44.427Z,0.00
2023-02-22T00:40:44.403Z,0.00
2023-02-22T00:41:44.499Z,0.00
2023-02-22T00:42:44.387Z,0.00
2023-02-22T00:43:44.393Z,0.00
2023-02-22T00:44:44.344Z,0.00
2023-02-22T00:45:44.517Z,0.00
2023-02-22T00:46:44.339Z,0.00
2023-02-22T00:47:44.340Z,0.00
2023-02-22T00:48:44.289Z,0.00
2023-02-22T00:49:44.298Z,0.00
2023-02-22T00:50:44.259Z,0.00
2023-02-22T00:51:44.306Z,0.00
2023-02-22T00:52:44.229Z,0.00
2023-02-22T00:53:44.260Z,0.00
2023-02-22T00:54:44.213Z,0.00
2023-02-22T00:55:44.229Z,0.00
2023-02-22T00:56:44.210Z,0.00
2023-02-22T00:57:44.182Z,0.00
2023-02-22T00:58:44.158Z,0.00
2023-02-22T00:59:44.160Z,0.00
2023-02-22T01:00:44.139Z,0.00
2023-02-22T01:01:44.162Z,0.00
2023-02-22T01:02:44.129Z,0.00
2023-02-22T01:03:44.160Z,0.00
2023-02-22T01:04:44.098Z,0.00
2023-02-22T01:05:44.103Z,0.00
2023-02-22T01:06:44.043Z,0.00
2023-02-22T01:07:44.068Z,0.00
2023-02-22T01:08:44.069Z,0.00
2023-02-22T01:09:44.012Z,0.00
2023-02-22T01:10:44.041Z,0.00
2023-02-22T01:11:44.027Z,0.00
2023-02-22T01:12:43.995Z,0.00
2023-02-22T01:13:43.946Z,0.00
2023-02-22T01:14:43.972Z,0.00
2023-02-22T01:15:43.928Z,0.00
2023-02-22T01:16:44.045Z,0.00
2023-02-22T01:17:43.958Z,0.00
2023-02-22T01:18:43.925Z,0.00
2023-02-22T01:19:43.877Z,0.00
2023-02-22T01:20:43.901Z,0.00
2023-02-22T01:21:43.889Z,0.00
2023-02-22T01:22:43.900Z,0.00
2023-02-22T01:23:43.835Z,0.00
2023-02-22T01:24:43.837Z,0.00
2023-02-22T01:25:43.800Z,0.00
2023-02-22T01:26:43.837Z,0.00
2023-02-22T01:27:43.771Z,0.00
2023-02-22T01:28:43.794Z,0.00
2023-02-22T01:29:43.755Z,0.00
2023-02-22T01:30:43.911Z,0.00
2023-02-22T01:31:43.791Z,0.00
2023-02-22T01:32:43.742Z,0.00
2023-02-22T01:33:43.701Z,0.00
2023-02-22T01:34:43.703Z,0.00
2023-02-22T01:35:43.703Z,0.00
2023-02-22T01:36:43.696Z,0.00
2023-02-22T01:37:43.644Z,0.00
2023-02-22T01:38:43.683Z,0.00
2023-02-22T01:39:43.642Z,0.00
2023-02-22T01:40:43.631Z,0.00
2023-02-22T01:41:43.580Z,0.00
2023-02-22T01:42:43.597Z,0.00
2023-02-22T01:43:43.584Z,0.00
2023-02-22T01:44:43.578Z,0.00
2023-02-22T01:45:43.676Z,0.00
2023-02-22T01:46:43.594Z,0.00
2023-02-22T01:47:43.505Z,0.00
2023-02-22T01:48:43.530Z,0.00
2023-02-22T01:49:43.485Z,0.00
2023-02-22T01:50:43.538Z,0.00
2023-02-22T01:51:43.454Z,0.00
2023-02-22T01:52:43.493Z,0.00
2023-02-22T01:53:43.439Z,0.00
2023-02-22T01:54:43.454Z,0.00
2023-02-22T01:55:43.424Z,0.00
2023-02-22T01:56:43.429Z,0.00
2023-02-22T01:57:43.419Z,0.00
2023-02-22T01:58:43.395Z,0.00
2023-02-22T01:59:43.376Z,0.00
2023-02-22T02:00:43.358Z,0.00
2023-02-22T02:01:43.338Z,0.00
2023-02-22T02:02:43.360Z,0.00
2023-02-22T02:03:43.328Z,0.00
2023-02-22T02:04:43.455Z,0.00
2023-02-22T02:05:43.291Z,0.00
2023-02-22T02:06:43.282Z,0.00
2023-02-22T02:07:43.265Z,0.00
2023-02-22T02:08:43.250Z,0.00
2023-02-22T02:09:43.230Z,0.00
2023-02-22T02:10:43.227Z,0.00
2023-02-22T02:11:43.189Z,0.00
2023-02-22T02:12:43.227Z,0.00
2023-02-22T02:13:43.173Z,0.00
2023-02-22T02:14:43.184Z,0.00
2023-02-22T02:15:43.140Z,0.00
2023-02-22T02:16:43.205Z,0.00
2023-02-22T02:17:43.120Z,0.00
2023-02-22T02:18:43.149Z,0.00
2023-02-22T02:19:43.100Z,0.00
2023-02-22T02:20:43.096Z,0.00
2023-02-22T02:21:43.094Z,0.00
2023-02-22T02:22:43.087Z,0.00
2023-02-22T02:23:43.050Z,0.00
2023-02-22T02:24:43.078Z,0.00
2023-02-22T02:25:43.023Z,0.00
2023-02-22T02:26:43.032Z,0.00
2023-02-22T02:27:43.003Z,0.00
2023-02-22T02:28:43.034Z,0.00
2023-02-22T02:29:42.985Z,0.00
2023-02-22T02:30:42.974Z,0.00
2023-02-22T02:31:43.099Z,0.00
2023-02-22T02:32:43.010Z,0.00
2023-02-22T02:33:42.916Z,0.00
2023-02-22T02:34:42.954Z,0.00
2023-02-22T02:35:42.897Z,0.00
2023-02-22T02:36:42.896Z,0.00
2023-02-22T02:37:42.881Z,0.00
2023-02-22T02:38:42.940Z,0.00
2023-02-22T02:39:42.844Z,0.00
2023-02-22T02:40:42.875Z,0.00
2023-02-22T02:41:42.821Z,0.00
2023-02-22T02:42:42.834Z,0.00
2023-02-22T02:43:42.780Z,0.00
2023-02-22T02:44:42.809Z,0.00
2023-02-22T02:45:42.800Z,0.00
2023-02-22T02:46:42.784Z,0.00
2023-02-22T02:47:42.779Z,0.00
2023-02-22T02:48:42.782Z,0.00
2023-02-22T02:49:42.717Z,0.00
2023-02-22T02:50:42.732Z,0.00
2023-02-22T02:51:42.690Z,0.00
2023-02-22T02:52:42.727Z,0.00
2023-02-22T02:53:42.660Z,0.00
2023-02-22T02:54:42.670Z,0.00
2023-02-22T02:55:42.633Z,0.00
2023-02-22T02:56:42.668Z,0.00
2023-02-22T02:57:42.601Z,0.00
2023-02-22T02:58:42.626Z,0.00
2023-02-22T02:59:42.606Z,0.00
2023-02-22T03:00:42.588Z,0.00
2023-02-22T03:01:42.599Z,0.00
2023-02-22T03:02:42.568Z,0.00
2023-02-22T03:03:42.517Z,0.00
2023-02-22T03:04:42.526Z,0.00
2023-02-22T03:05:42.492Z,0.00
2023-02-22T03:06:42.542Z,0.00
2023-02-22T03:07:42.501Z,0.00
2023-02-22T03:08:42.501Z,0.00
2023-02-22T03:09:42.466Z,0.00
2023-02-22T03:10:42.452Z,0.00
2023-02-22T03:11:42.425Z,0.00
2023-02-22T03:12:42.475Z,0.00
2023-02-22T03:13:42.394Z,0.00
2023-02-22T03:14:42.445Z,0.00
2023-02-22T03:15:42.377Z,0.00
2023-02-22T03:16:42.464Z,0.00
2023-02-22T03:17:42.352Z,0.00
2023-02-22T03:18:42.353Z,0.00
2023-02-22T03:19:42.332Z,0.00
2023-02-22T03:20:42.333Z,0.00
2023-02-22T03:21:42.288Z,0.00
2023-02-22T03:22:42.295Z,0.00
2023-02-22T03:23:42.280Z,0.00
2023-02-22T03:24:42.293Z,0.00
2023-02-22T03:25:42.248Z,0.00
2023-02-22T03:26:42.297Z,0.00
2023-02-22T03:27:42.210Z,0.00
2023-02-22T03:28:42.262Z,0.00
2023-02-22T03:29:42.227Z,0.00
2023-02-22T03:30:42.218Z,0.00
2023-02-22T03:31:42.185Z,0.00
2023-02-22T03:32:42.180Z,0.00
2023-02-22T03:33:42.142Z,0.00
2023-02-22T03:34:42.203Z,0.00
2023-02-22T03:35:42.117Z,0.00
2023-02-22T03:36:42.140Z,0.00
2023-02-22T03:37:42.084Z,0.00
2023-02-22T03:38:42.102Z,0.00
2023-02-22T03:39:42.086Z,0.00
2023-02-22T03:40:42.074Z,0.00
2023-02-22T03:41:42.036Z,0.00
2023-02-22T03:42:42.044Z,0.00
2023-02-22T03:43:42.023Z,0.00
2023-02-22T03:44:42.056Z,0.00
2023-02-22T03:45:41.984Z,0.00
2023-02-22T03:46:42.026Z,0.00
2023-02-22T03:47:41.994Z,0.00
2023-02-22T03:48:41.974Z,0.00
2023-02-22T03:49:41.942Z,0.00
2023-02-22T03:50:41.965Z,0.00
2023-02-22T03:51:41.923Z,0.00
2023-02-22T03:52:41.915Z,0.00
2023-02-22T03:53:41.904Z,0.00
2023-02-22T03:54:41.910Z,0.00
2023-02-22T03:55:41.874Z,0.00
2023-02-22T03:56:41.877Z,0.00
2023-02-22T03:57:41.835Z,0.00
2023-02-22T03:58:41.852Z,0.00
2023-02-22T03:59:41.861Z,0.00
2023-02-22T04:00:41.859Z,0.00
2023-02-22T04:01:41.787Z,0.00
2023-02-22T04:02:41.926Z,0.00
2023-02-22T04:03:41.758Z,0.00
2023-02-22T04:04:41.840Z,0.00
2023-02-22T04:05:41.747Z,0.00
2023-02-22T04:06:41.766Z,0.00
2023-02-22T04:07:41.720Z,0.00
2023-02-22T04:08:41.711Z,0.00
2023-02-22T04:09:41.675Z,0.00
2023-02-22T04:10:41.696Z,0.00
2023-02-22T04:11:41.690Z,0.00
2023-02-22T04:12:41.673Z,0.00
2023-02-22T04:13:41.658Z,0.00
2023-02-22T04:14:41.649Z,0.00
2023-02-22T04:15:41.608Z,0.00
2023-02-22T04:16:41.632Z,0.00
2023-02-22T04:17:41.619Z,0.00
2023-02-22T04:18:41.623Z,0.00
2023-02-22T04:19:41.542Z,0.00
2023-02-22T04:20:41.579Z,0.00
2023-02-22T04:21:41.533Z,0.00
2023-02-22T04:22:41.548Z,0.00
2023-02-22T04:23:41.525Z,0.00
2023-02-22T04:24:41.516Z,0.00
2023-02-22T04:25:41.476Z,0.00
2023-02-22T04:26:41.479Z,0.00
2023-02-22T04:27:41.500Z,0.00
2023-02-22T04:28:41.452Z,0.00
2023-02-22T04:29:41.431Z,0.00
2023-02-22T04:30:41.442Z,0.00
2023-02-22T04:31:41.451Z,0.00
2023-02-22T04:32:41.420Z,0.00
2023-02-22T04:33:41.392Z,0.00
2023-02-22T04:34:41.381Z,0.00
2023-02-22T04:35:41.349Z,0.00
2023-02-22T04:36:41.353Z,0.00
2023-02-22T04:37:41.362Z,0.00
2023-02-22T04:38:41.336Z,0.00
2023-02-22T04:39:41.366Z,0.00
2023-02-22T04:40:41.303Z,0.00
2023-02-22T04:41:41.284Z,0.00
2023-02-22T04:42:41.284Z,0.00
2023-02-22T04:43:41.247Z,0.00
2023-02-22T04:44:41.274Z,0.00
2023-02-22T04:45:41.225Z,0.00
2023-02-22T04:46:41.242Z,0.00
2023-02-22T04:47:41.211Z,0.00
2023-02-22T04:48:41.196Z,0.00
2023-02-22T04:49:41.201Z,0.00
2023-02-22T04:50:41.183Z,0.00
2023-02-22T04:51:41.132Z,0.00
2023-02-22T04:52:41.158Z,0.00
2023-02-22T04:53:41.134Z,0.00
2023-02-22T04:54:41.144Z,0.00
2023-02-22T04:55:41.095Z,0.00
2023-02-22T04:56:41.131Z,0.00
2023-02-22T04:57:41.081Z,0.00
2023-02-22T04:58:41.089Z,0.00
2023-02-22T04:59:41.046Z,0.00
2023-02-22T05:00:41.053Z,0.00
2023-02-22T05:01:41.038Z,0.00
2023-02-22T05:02:41.100Z,0.00
2023-02-22T05:03:40.989Z,0.00
2023-02-22T05:04:41.010Z,0.00
2023-02-22T05:05:40.969Z,0.00
2023-02-22T05:06:40.992Z,0.00
2023-02-22T05:07:40.953Z,0.00
2023-02-22T05:08:40.964Z,0.00
2023-02-22T05:09:40.921Z,0.00
2023-02-22T05:10:40.946Z,0.00
2023-02-22T05:11:40.910Z,0.00
2023-02-22T05:12:40.925Z,0.00
2023-02-22T05:13:40.888Z,0.00
2023-02-22T05:14:40.878Z,0.00
2023-02-22T05:15:40.836Z,0.00
2023-02-22T05:16:40.832Z,0.00
2023-02-22T05:17:40.815Z,0.00
2023-02-22T05:18:40.829Z,0.00
2023-02-22T05:19:40.815Z,0.00
2023-02-22T05:20:40.804Z,0.00
2023-02-22T05:21:40.753Z,0.00
2023-02-22T05:22:40.788Z,0.00
2023-02-22T05:23:40.723Z,0.00
2023-02-22T05:24:40.734Z,0.00
2023-02-22T05:25:40.734Z,0.00
2023-02-22T05:26:40.705Z,0.00
2023-02-22T05:27:40.694Z,0.00
2023-02-22T05:28:40.676Z,0.00
2023-02-22T05:29:40.733Z,0.00
2023-02-22T05:30:40.735Z,0.00
2023-02-22T05:31:40.874Z,0.00
2023-02-22T05:32:40.619Z,0.00
2023-02-22T05:33:40.610Z,0.00
2023-02-22T05:34:40.635Z,0.00
2023-02-22T05:35:40.602Z,0.00
2023-02-22T05:36:40.568Z,0.00
2023-02-22T05:37:40.568Z,0.00
2023-02-22T05:38:40.541Z,0.00
2023-02-22T05:39:40.564Z,0.00
2023-02-22T05:40:40.521Z,0.00
2023-02-22T05:41:40.528Z,0.00
2023-02-22T05:42:40.475Z,0.00
2023-02-22T05:43:40.489Z,0.00
2023-02-22T05:44:40.472Z,0.00
2023-02-22T05:45:40.489Z,0.00
2023-02-22T05:46:40.456Z,0.00
2023-02-22T05:47:40.459Z,0.00
2023-02-22T05:48:40.422Z,0.00
2023-02-22T05:49:40.420Z,0.00
2023-02-22T05:50:40.384Z,0.00
2023-02-22T05:51:40.420Z,0.00
2023-02-22T05:52:40.361Z,0.00
2023-02-22T05:53:40.391Z,0.00
2023-02-22T05:54:40.337Z,0.00
2023-02-22T05:55:40.337Z,0.00
2023-02-22T05:56:40.325Z,0.00
2023-02-22T05:57:40.318Z,0.00
2023-02-22T05:58:40.301Z,0.00
2023-02-22T05:59:40.290Z,0.00
2023-02-22T06:00:40.262Z,0.00
2023-02-22T06:01:40.315Z,0.00
2023-02-22T06:02:40.221Z,0.00
2023-02-22T06:03:40.256Z,0.00
2023-02-22T06:04:40.194Z,0.00
2023-02-22T06:05:40.254Z,0.00
2023-02-22T06:06:40.170Z,0.00
2023-02-22T06:07:40.231Z,4.00
2023-02-22T06:08:40.170Z,0.00
2023-02-22T06:09:40.175Z,0.00
2023-02-22T06:10:40.142Z,4.00
2023-02-22T06:11:40.152Z,0.00
2023-02-22T06:12:40.110Z,0.00
2023-02-22T06:13:40.125Z,0.00
2023-02-22T06:14:40.079Z,4.00
2023-02-22T06:15:40.088Z,4.00
2023-02-22T06:16:40.044Z,0.00
2023-02-22T06:17:40.055Z,0.00
2023-02-22T06:18:40.045Z,4.00
2023-02-22T06:19:40.033Z,4.00
2023-02-22T06:20:40.004Z,0.00
2023-02-22T06:21:39.994Z,4.00
2023-02-22T06:22:39.967Z,4.00
2023-02-22T06:23:39.979Z,4.00
2023-02-22T06:24:39.960Z,4.00
2023-02-22T06:25:39.946Z,4.00
2023-02-22T06:26:39.920Z,4.00
2023-02-22T06:27:39.930Z,4.00
2023-02-22T06:28:39.899Z,8.00
2023-02-22T06:29:39.938Z,8.00
2023-02-22T06:30:39.883Z,8.00
2023-02-22T06:31:39.962Z,4.00
2023-02-22T06:32:39.833Z,8.00
2023-02-22T06:33:39.849Z,8.00
2023-02-22T06:34:39.813Z,8.00
2023-02-22T06:35:39.852Z,12.00
2023-02-22T06:36:39.782Z,16.00
2023-02-22T06:37:39.805Z,16.00
2023-02-22T06:38:39.773Z,16.00
2023-02-22T06:39:39.770Z,20.00
2023-02-22T06:40:39.755Z,16.00
2023-02-22T06:41:39.746Z,16.00
2023-02-22T06:42:39.747Z,24.00
2023-02-22T06:43:39.735Z,24.00
2023-02-22T06:44:39.703Z,28.00
2023-02-22T06:45:39.751Z,32.00
2023-02-22T06:46:39.673Z,32.00
2023-02-22T06:47:39.690Z,28.00
2023-02-22T06:48:39.681Z,28.00
2023-02-22T06:49:39.666Z,32.00
2023-02-22T06:50:39.614Z,28.00
2023-02-22T06:51:39.671Z,32.00
2023-02-22T06:52:39.606Z,32.00
2023-02-22T06:53:39.604Z,36.00
2023-02-22T06:54:39.574Z,32.00
2023-02-22T06:55:39.565Z,32.00
2023-02-22T06:56:39.541Z,32.00
2023-02-22T06:57:39.542Z,32.00
2023-02-22T06:58:39.547Z,36.00
2023-02-22T06:59:39.536Z,36.00
2023-02-22T07:00:39.524Z,40.00
2023-02-22T07:01:39.485Z,40.00
2023-02-22T07:02:39.451Z,44.00
2023-02-22T07:03:39.518Z,44.00
2023-02-22T07:04:41.720Z,48.00
2023-02-22T07:05:39.451Z,44.00
2023-02-22T07:06:39.424Z,52.00
2023-02-22T07:07:39.442Z,64.00
2023-02-22T07:08:39.366Z,68.00
2023-02-22T07:09:39.397Z,68.00
2023-02-22T07:10:39.385Z,68.00
2023-02-22T07:11:39.365Z,64.00
2023-02-22T07:12:39.339Z,64.00
2023-02-22T07:13:39.339Z,64.00
2023-02-22T07:14:39.313Z,60.00
2023-02-22T07:15:39.326Z,60.00
2023-02-22T07:16:39.295Z,64.00
2023-02-22T07:17:39.275Z,64.00
2023-02-22T07:18:39.276Z,60.00
2023-02-22T07:19:39.267Z,64.00
2023-02-22T07:20:39.246Z,68.00
2023-02-22T07:21:39.239Z,68.00
2023-02-22T07:22:39.219Z,68.00
2023-02-22T07:23:39.245Z,72.00
2023-02-22T07:24:39.170Z,72.00
2023-02-22T07:25:39.183Z,72.00
2023-02-22T07:26:39.150Z,76.00
2023-02-22T07:27:39.168Z,80.00
2023-02-22T07:28:39.143Z,84.00
2023-02-22T07:29:39.147Z,84.00
2023-02-22T07:30:39.212Z,88.00
2023-02-22T07:31:39.139Z,88.00
2023-02-22T07:32:39.206Z,88.00
2023-02-22T07:33:39.062Z,92.00
2023-02-22T07:34:39.097Z,96.00
2023-02-22T07:35:39.044Z,100.00
2023-02-22T07:36:39.048Z,104.00
2023-02-22T07:37:39.004Z,108.00
2023-02-22T07:38:39.018Z,112.00
2023-02-22T07:39:39.004Z,116.00
2023-02-22T07:40:38.993Z,120.00
2023-02-22T07:41:38.991Z,128.00
2023-02-22T07:42:38.993Z,140.00
2023-02-22T07:43:38.935Z,156.00
2023-02-22T07:44:38.960Z,160.00
2023-02-22T07:45:38.939Z,164.00
2023-02-22T07:46:38.959Z,164.00
2023-02-22T07:47:38.878Z,176.00
2023-02-22T07:48:38.906Z,188.00
2023-02-22T07:49:38.856Z,196.00
2023-02-22T07:50:38.900Z,216.00
2023-02-22T07:51:38.884Z,228.00
2023-02-22T07:52:38.833Z,236.00
2023-02-22T07:53:38.813Z,252.00
2023-02-22T07:54:38.829Z,264.00
2023-02-22T07:55:38.767Z,280.00
2023-02-22T07:56:38.839Z,320.00
2023-02-22T07:57:38.746Z,340.00
2023-02-22T07:58:38.757Z,344.00
2023-02-22T07:59:38.725Z,288.00
2023-02-22T08:00:38.734Z,284.00
2023-02-22T08:01:38.714Z,324.00
2023-02-22T08:02:38.740Z,352.00
2023-02-22T08:03:38.736Z,384.00
2023-02-22T08:04:38.710Z,424.00
2023-02-22T08:05:38.645Z,460.00
2023-02-22T08:06:38.678Z,472.00
2023-02-22T08:07:38.646Z,500.00
2023-02-22T08:08:38.646Z,516.00
2023-02-22T08:09:38.625Z,496.00
2023-02-22T08:10:38.622Z,456.00
2023-02-22T08:11:38.601Z,456.00
2023-02-22T08:12:38.584Z,480.00
2023-02-22T08:13:38.549Z,468.00
2023-02-22T08:14:38.597Z,484.00
2023-02-22T08:15:38.553Z,480.00
2023-02-22T08:16:38.594Z,460.00
2023-02-22T08:17:38.483Z,468.00
2023-02-22T08:18:38.492Z,504.00
2023-02-22T08:19:38.468Z,560.00
2023-02-22T08:20:38.508Z,628.00
2023-02-22T08:21:38.434Z,700.00
2023-02-22T08:22:38.456Z,808.00
2023-02-22T08:23:38.413Z,804.00
2023-02-22T08:24:39.328Z,776.00
2023-02-22T08:25:38.389Z,712.00
2023-02-22T08:26:38.420Z,640.00
2023-02-22T08:27:38.384Z,612.00
2023-02-22T08:28:38.381Z,632.00
2023-02-22T08:29:38.344Z,652.00
2023-02-22T08:30:40.401Z,672.00
2023-02-22T08:31:38.338Z,700.00
2023-02-22T08:32:38.426Z,704.00
2023-02-22T08:33:38.317Z,632.00
2023-02-22T08:34:38.307Z,572.00
2023-02-22T08:35:38.276Z,584.00
2023-02-22T08:36:38.321Z,568.00
2023-02-22T08:37:38.235Z,536.00
2023-02-22T08:38:38.246Z,472.00
2023-02-22T08:39:38.199Z,512.00
2023-02-22T08:40:38.221Z,544.00
2023-02-22T08:41:38.189Z,608.00
2023-02-22T08:42:38.202Z,692.00
2023-02-22T08:43:38.183Z,828.00
2023-02-22T08:44:38.169Z,856.00
2023-02-22T08:45:38.171Z,860.00
2023-02-22T08:46:38.181Z,836.00
2023-02-22T08:47:38.219Z,832.00
2023-02-22T08:48:38.110Z,744.00
2023-02-22T08:49:38.080Z,776.00
2023-02-22T08:50:38.092Z,872.00
2023-02-22T08:51:38.078Z,948.00
2023-02-22T08:52:38.075Z,936.00
2023-02-22T08:53:38.028Z,772.00
2023-02-22T08:54:38.027Z,608.00
2023-02-22T08:55:38.015Z,580.00
2023-02-22T08:56:37.999Z,624.00
2023-02-22T08:57:37.974Z,708.00
2023-02-22T08:58:37.985Z,744.00
2023-02-22T08:59:37.952Z,704.00
2023-02-22T09:00:37.988Z,680.00
2023-02-22T09:01:38.289Z,736.00
2023-02-22T09:02:37.928Z,748.00
2023-02-22T09:03:38.014Z,792.00
2023-02-22T09:04:37.899Z,800.00
2023-02-22T09:05:38.049Z,868.00
2023-02-22T09:06:37.865Z,880.00
2023-02-22T09:07:37.866Z,872.00
2023-02-22T09:08:37.866Z,900.00
2023-02-22T09:09:37.832Z,932.00
2023-02-22T09:10:37.849Z,936.00
2023-02-22T09:11:37.769Z,968.00
2023-02-22T09:12:37.807Z,980.00
2023-02-22T09:13:37.801Z,952.00
2023-02-22T09:14:37.774Z,952.00
2023-02-22T09:15:37.779Z,964.00
2023-02-22T09:16:37.796Z,1020.00
2023-02-22T09:17:37.711Z,1040.00
2023-02-22T09:18:44.015Z,1036.00
2023-02-22T09:19:37.698Z,1024.00
2023-02-22T09:20:37.715Z,992.00
2023-02-22T09:21:37.644Z,972.00
2023-02-22T09:22:37.660Z,944.00
2023-02-22T09:23:37.635Z,956.00
2023-02-22T09:24:37.676Z,972.00
2023-02-22T09:25:37.604Z,944.00
2023-02-22T09:26:37.639Z,936.00
2023-02-22T09:27:37.583Z,900.00
2023-02-22T09:28:37.585Z,896.00
2023-02-22T09:29:37.582Z,908.00
2023-02-22T09:30:37.619Z,896.00
2023-02-22T09:31:37.555Z,912.00
2023-02-22T09:32:37.780Z,904.00
2023-02-22T09:33:37.485Z,904.00
2023-02-22T09:34:37.512Z,984.00
2023-02-22T09:35:37.518Z,988.00
2023-02-22T09:36:37.497Z,1016.00
2023-02-22T09:37:37.440Z,1028.00
2023-02-22T09:38:37.448Z,1036.00
2023-02-22T09:39:37.641Z,1048.00
2023-02-22T09:40:37.427Z,952.00
2023-02-22T09:41:37.401Z,1060.00
2023-02-22T09:42:37.394Z,1116.00
2023-02-22T09:43:37.387Z,1144.00
2023-02-22T09:44:37.370Z,1172.00
2023-02-22T09:45:37.411Z,1232.00
2023-02-22T09:46:37.320Z,1284.00
2023-02-22T09:47:37.383Z,1380.00
2023-02-22T09:48:37.304Z,1444.00
2023-02-22T09:49:37.327Z,1528.00
2023-02-22T09:50:37.265Z,1560.00
2023-02-22T09:51:37.276Z,1592.00
2023-02-22T09:52:37.242Z,1624.00
2023-02-22T09:53:37.245Z,1652.00
2023-02-22T09:54:37.227Z,1804.00
2023-02-22T09:55:37.234Z,1888.00
2023-02-22T09:56:37.183Z,2128.00
2023-02-22T09:57:37.193Z,3068.00
2023-02-22T09:58:37.148Z,4492.00
2023-02-22T09:59:37.200Z,6336.00
2023-02-22T10:00:37.137Z,7436.00
2023-02-22T10:01:37.152Z,7692.00
2023-02-22T10:02:37.126Z,8804.00
2023-02-22T10:03:37.139Z,8324.00
2023-02-22T10:04:37.128Z,8524.00
2023-02-22T10:05:37.117Z,8408.00
2023-02-22T10:06:37.084Z,8924.00
2023-02-22T10:07:37.062Z,9608.00
2023-02-22T10:08:37.024Z,9768.00
2023-02-22T10:09:37.043Z,9788.00
2023-02-22T10:10:37.017Z,8264.00
2023-02-22T10:11:37.040Z,11204.00
2023-02-22T10:12:36.979Z,15168.00
2023-02-22T10:13:36.986Z,14688.00
2023-02-22T10:14:36.952Z,11268.00
2023-02-22T10:15:36.976Z,9784.00
2023-02-22T10:16:37.114Z,8380.00
2023-02-22T10:17:36.935Z,7420.00
2023-02-22T10:18:36.904Z,6616.00
2023-02-22T10:19:36.934Z,5600.00
2023-02-22T10:20:36.879Z,5200.00
2023-02-22T10:21:36.904Z,4960.00
2023-02-22T10:22:36.856Z,4824.00
2023-02-22T10:23:36.887Z,4548.00
2023-02-22T10:24:36.814Z,4612.00
2023-02-22T10:25:36.861Z,4724.00
2023-02-22T10:26:36.817Z,4700.00
2023-02-22T10:27:36.802Z,4932.00
2023-02-22T10:28:37.335Z,4556.00
2023-02-22T10:29:36.769Z,4320.00
2023-02-22T10:30:36.819Z,3944.00
2023-02-22T10:31:36.793Z,3556.00
2023-02-22T10:32:36.782Z,3344.00
2023-02-22T10:33:36.761Z,3076.00
2023-02-22T10:34:36.679Z,3124.00
2023-02-22T10:35:36.705Z,2916.00
2023-02-22T10:36:36.718Z,2356.00
2023-02-22T10:37:36.717Z,1348.00
2023-02-22T10:38:36.643Z,876.00
2023-02-22T10:39:36.725Z,772.00
2023-02-22T10:40:36.624Z,732.00
2023-02-22T10:41:36.621Z,688.00
2023-02-22T10:42:36.622Z,652.00
2023-02-22T10:43:36.597Z,628.00
2023-02-22T10:44:36.573Z,612.00
2023-02-22T10:45:36.600Z,612.00
2023-02-22T10:46:36.524Z,604.00
2023-02-22T10:47:36.549Z,584.00
2023-02-22T10:48:36.504Z,560.00
2023-02-22T10:49:36.543Z,532.00
2023-02-22T10:50:36.491Z,516.00
2023-02-22T10:51:36.565Z,512.00
2023-02-22T10:52:36.463Z,512.00
2023-02-22T10:53:36.664Z,516.00
2023-02-22T10:54:36.446Z,528.00
2023-02-22T10:55:36.502Z,532.00
2023-02-22T10:56:36.484Z,536.00
2023-02-22T10:57:36.424Z,552.00
2023-02-22T10:58:36.400Z,564.00
2023-02-22T10:59:36.421Z,564.00
2023-02-22T11:00:36.395Z,560.00
2023-02-22T11:01:36.424Z,556.00
2023-02-22T11:02:36.325Z,552.00
2023-02-22T11:03:36.330Z,548.00
2023-02-22T11:04:36.320Z,544.00
2023-02-22T11:05:36.352Z,532.00
2023-02-22T11:06:36.267Z,524.00
2023-02-22T11:07:36.292Z,520.00
2023-02-22T11:08:36.252Z,520.00
2023-02-22T11:09:36.261Z,516.00
2023-02-22T11:10:36.259Z,512.00
2023-02-22T11:11:36.248Z,508.00
2023-02-22T11:12:36.188Z,496.00
2023-02-22T11:13:36.219Z,484.00
2023-02-22T11:14:36.189Z,472.00
2023-02-22T11:15:36.221Z,460.00
2023-02-22T11:16:36.274Z,452.00
2023-02-22T11:17:36.146Z,440.00
2023-02-22T11:18:36.168Z,440.00
2023-02-22T11:19:36.128Z,432.00
2023-02-22T11:20:36.133Z,424.00
2023-02-22T11:21:36.112Z,424.00
2023-02-22T11:22:36.073Z,420.00
2023-02-22T11:23:36.086Z,416.00
2023-02-22T11:24:48.400Z,412.00
2023-02-22T11:25:36.074Z,408.00
2023-02-22T11:26:35.999Z,408.00
2023-02-22T11:27:36.040Z,400.00
2023-02-22T11:28:35.997Z,396.00
2023-02-22T11:29:35.985Z,392.00
2023-02-22T11:30:36.125Z,388.00
2023-02-22T11:31:36.063Z,384.00
2023-02-22T11:32:35.918Z,380.00
2023-02-22T11:33:35.958Z,376.00
2023-02-22T11:34:35.911Z,368.00
2023-02-22T11:35:35.909Z,368.00
2023-02-22T11:36:35.898Z,360.00
2023-02-22T11:37:35.878Z,352.00
2023-02-22T11:38:35.851Z,344.00
2023-02-22T11:39:35.920Z,348.00
2023-02-22T11:40:35.837Z,336.00
2023-02-22T11:41:35.847Z,336.00
2023-02-22T11:42:35.791Z,328.00
2023-02-22T11:43:35.800Z,340.00
2023-02-22T11:44:35.774Z,344.00
2023-02-22T11:45:36.565Z,348.00
2023-02-22T11:46:35.844Z,352.00
2023-02-22T11:47:35.742Z,356.00
2023-02-22T11:48:35.708Z,356.00
2023-02-22T11:49:35.740Z,352.00
2023-02-22T11:50:35.686Z,352.00
2023-02-22T11:51:35.712Z,352.00
2023-02-22T11:52:35.675Z,348.00
2023-02-22T11:53:35.663Z,348.00
2023-02-22T11:54:35.646Z,344.00
2023-02-22T11:55:42.778Z,340.00
2023-02-22T11:56:38.114Z,336.00
2023-02-22T11:57:35.629Z,328.00
2023-02-22T11:58:35.573Z,320.00
2023-02-22T11:59:35.616Z,312.00
2023-02-22T12:00:35.560Z,308.00
2023-02-22T12:01:35.598Z,308.00
2023-02-22T12:02:35.520Z,312.00
2023-02-22T12:03:35.568Z,312.00
2023-02-22T12:04:35.609Z,312.00
2023-02-22T12:05:35.521Z,300.00
2023-02-22T12:06:35.501Z,304.00
2023-02-22T12:07:35.475Z,296.00
2023-02-22T12:08:35.438Z,280.00
2023-02-22T12:09:35.458Z,284.00
2023-02-22T12:10:35.483Z,280.00
2023-02-22T12:11:35.432Z,272.00
2023-02-22T12:12:35.433Z,276.00
2023-02-22T12:13:35.399Z,276.00
2023-02-22T12:14:35.365Z,272.00
2023-02-22T12:15:35.432Z,276.00
2023-02-22T12:16:36.177Z,272.00
2023-02-22T12:17:35.373Z,268.00
2023-02-22T12:18:35.301Z,264.00
2023-02-22T12:19:35.336Z,264.00
2023-02-22T12:20:35.311Z,260.00
2023-02-22T12:21:35.323Z,256.00
2023-02-22T12:22:35.269Z,248.00
2023-02-22T12:23:35.277Z,252.00
2023-02-22T12:24:35.240Z,248.00
2023-02-22T12:25:35.271Z,244.00
2023-02-22T12:26:35.240Z,240.00
2023-02-22T12:27:35.218Z,236.00
2023-02-22T12:28:35.220Z,228.00
2023-02-22T12:29:35.196Z,232.00
2023-02-22T12:30:35.218Z,232.00
2023-02-22T12:31:35.277Z,228.00
2023-02-22T12:32:35.229Z,228.00
2023-02-22T12:33:35.201Z,224.00
2023-02-22T12:34:35.134Z,220.00
2023-02-22T12:35:35.108Z,224.00
2023-02-22T12:36:35.113Z,228.00
2023-02-22T12:37:35.087Z,224.00
2023-02-22T12:38:35.069Z,224.00
2023-02-22T12:39:47.125Z,224.00
2023-02-22T12:40:35.030Z,220.00
2023-02-22T12:41:35.046Z,216.00
2023-02-22T12:42:35.006Z,212.00
2023-02-22T12:43:35.013Z,208.00
2023-02-22T12:44:35.001Z,208.00
2023-02-22T12:45:34.994Z,208.00
2023-02-22T12:46:34.983Z,212.00
2023-02-22T12:47:34.963Z,212.00
2023-02-22T12:48:34.926Z,212.00
2023-02-22T12:49:34.976Z,216.00
2023-02-22T12:50:34.931Z,216.00
2023-02-22T12:51:34.914Z,216.00
2023-02-22T12:52:34.877Z,212.00